This is the latest recevied weather packets stored in our database for station/object KB9YVI-11. If no packets are shown the sender has not sent any weather packets the latest 10 day(s).
| Time | Temp. | Humidity | Pressure | Rain* | Wind** | Luminosity | Snow |
|---|---|---|---|---|---|---|---|
| 1787874439 | 25.56° C | 97% | 0 hPa | 0 mm | - | - | - |
| 1787874139 | 25.56° C | 97% | 0 hPa | 0 mm | - | - | - |
| 1787873839 | 25.56° C | 96% | 0 hPa | 0 mm | - | - | - |
| 1787873240 | 26.11° C | 95% | 0 hPa | 0 mm | - | - | - |
| 1787872937 | 26.67° C | 95% | 0 hPa | 0 mm | - | - | - |
| 1787872339 | 27.22° C | 90% | 0 hPa | 0 mm | - | - | - |
| 1787872040 | 27.22° C | 90% | 0 hPa | 0 mm | - | - | - |
| 1787871739 | 27.22° C | 88% | 0 hPa | 0 mm | - | - | - |
| 1787870540 | 27.78° C | 86% | 0 hPa | 0 mm | - | - | - |
| 1787870241 | 27.78° C | 86% | 0 hPa | 0 mm | - | - | - |
| 1787869338 | 27.78° C | 86% | 0 hPa | 0 mm | - | - | - |
| 1787869040 | 27.78° C | 88% | 0 hPa | 0 mm | - | - | - |
| 1787868440 | 27.22° C | 88% | 0 hPa | 0 mm | - | - | - |
| 1787868140 | 27.22° C | 87% | 0 hPa | 0 mm | - | - | - |
| 1787867840 | 26.67° C | 88% | 0 hPa | 0 mm | - | - | - |
| 1787867540 | 26.67° C | 91% | 0 hPa | 0 mm | - | - | - |
| 1787867240 | 26.67° C | 92% | 0 hPa | 0 mm | - | - | - |
| 1787866640 | 27.22° C | 89% | 0 hPa | 0 mm | - | - | - |
| 1787866340 | 27.22° C | 88% | 0 hPa | 0 mm | - | - | - |
| 1787866040 | 27.78° C | 86% | 0 hPa | 0 mm | - | - | - |
| 1787865738 | 27.78° C | 85% | 0 hPa | 0 mm | - | - | - |
| 1787865140 | 27.78° C | 84% | 0 hPa | 0 mm | - | - | - |
| 1787864847 | 27.78° C | 84% | 0 hPa | 0 mm | - | - | - |
| 1787864541 | 27.78° C | 85% | 0 hPa | 0 mm | - | - | - |
| 1787863940 | 27.78° C | 83% | 0 hPa | 0 mm | - | - | - |
* Rain latest hour (hover to see other rain measurements)
** Current wind speed in m/s (hover to see current wind gust speed)